Time;durP1;ratioP1;P1;durP2;ratioP2;P2;SDS_P1;SDS_P2;PMS_P1;PMS_P2;Temp;Humidity;BMP_temperature;BMP_pressure;BME280_temperature;BME280_humidity;BME280_pressure;Samples;Min_cycle;Max_cycle;Signal;HPM_P1;HPM_P2
2023/06/02 00:01:13;;;;;;;;;10.33;10.33;;;;;;;;5061378;28;45348;-76
2023/06/02 00:03:38;;;;;;;;;9.33;8.67;;;;;;;;5060538;28;45339;-76
2023/06/02 00:06:05;;;;;;;;;11.00;10.33;;;;;;;;5060169;28;46080;-76
2023/06/02 00:08:31;;;;;;;;;12.00;10.67;;;;;;;;5061032;28;45384;-76
2023/06/02 00:10:56;;;;;;;;;12.00;10.67;;;;;;;;5060769;28;45299;-78
2023/06/02 00:13:22;;;;;;;;;9.00;9.00;;;;;;;;5059350;28;47200;-76
2023/06/02 00:15:47;;;;;;;;;14.67;13.00;;;;;;;;5061079;28;45373;-74
2023/06/02 00:18:13;;;;;;;;;18.00;14.00;;;;;;;;5059898;28;45386;-77
2023/06/02 00:20:38;;;;;;;;;11.00;8.67;;;;;;;;5059539;28;45409;-76
2023/06/02 00:23:03;;;;;;;;;11.33;10.67;;;;;;;;5060764;28;45391;-76
2023/06/02 00:25:29;;;;;;;;;16.00;11.67;;;;;;;;5060472;28;45385;-76
2023/06/02 00:27:55;;;;;;;;;13.00;12.00;;;;;;;;5060537;28;45320;-77
2023/06/02 00:30:20;;;;;;;;;11.33;11.33;;;;;;;;5060065;28;45438;-76
2023/06/02 00:32:45;;;;;;;;;14.33;12.67;;;;;;;;5060763;28;45238;-76
2023/06/02 00:35:10;;;;;;;;;13.67;10.67;;;;;;;;5059196;28;48595;-75
2023/06/02 00:37:36;;;;;;;;;9.33;8.33;;;;;;;;5059904;28;45149;-76
2023/06/02 00:40:02;;;;;;;;;17.33;15.67;;;;;;;;5060306;28;45259;-75
2023/06/02 00:42:27;;;;;;;;;13.00;12.00;;;;;;;;5060373;28;45161;-76
2023/06/02 00:44:52;;;;;;;;;12.33;12.00;;;;;;;;5059979;28;45356;-76
2023/06/02 00:47:17;;;;;;;;;8.67;6.33;;;;;;;;5060163;28;45231;-75
2023/06/02 00:49:42;;;;;;;;;11.00;11.00;;;;;;;;5060105;28;45157;-76
2023/06/02 00:52:08;;;;;;;;;11.00;10.67;;;;;;;;5060111;28;45192;-76
2023/06/02 00:54:34;;;;;;;;;14.33;14.33;;;;;;;;5058835;28;48375;-75
2023/06/02 00:57:00;;;;;;;;;16.33;15.67;;;;;;;;5059875;28;45363;-75
2023/06/02 00:59:25;;;;;;;;;16.00;13.00;;;;;;;;5060166;28;45320;-75
2023/06/02 01:01:51;;;;;;;;;16.00;16.00;;;;;;;;5059692;28;45511;-76
2023/06/02 01:04:17;;;;;;;;;18.00;15.00;;;;;;;;5059891;28;45604;-77
2023/06/02 01:06:43;;;;;;;;;15.00;15.00;;;;;;;;5058386;28;45358;-76
2023/06/02 01:09:10;;;;;;;;;17.33;17.33;;;;;;;;5060049;28;45331;-76
2023/06/02 01:11:36;;;;;;;;;17.00;14.00;;;;;;;;5059428;28;45179;-75
2023/06/02 01:14:01;;;;;;;;;16.67;15.67;;;;;;;;5058239;28;48289;-75
2023/06/02 01:16:29;;;;;;;;;14.67;13.33;;;;;;;;5058227;28;45406;-76
2023/06/02 01:18:55;;;;;;;;;16.67;16.67;;;;;;;;5058412;28;45389;-75
2023/06/02 01:21:23;;;;;;;;;21.00;20.33;;;;;;;;5057887;28;47294;-77
2023/06/02 01:23:54;;;;;;;;;20.00;18.00;;;;;;;;5059697;28;45335;-76
2023/06/02 01:26:19;;;;;;;;;18.33;16.00;;;;;;;;5059886;28;45327;-75
2023/06/02 01:28:45;;;;;;;;;19.33;18.33;;;;;;;;5058011;28;45365;-75
2023/06/02 01:31:17;;;;;;;;;18.67;17.33;;;;;;;;5059488;28;45475;-76
2023/06/02 01:33:45;;;;;;;;;18.00;18.00;;;;;;;;5058030;28;48404;-76
2023/06/02 01:36:10;;;;;;;;;17.00;15.67;;;;;;;;5058939;28;45330;-77
2023/06/02 01:38:37;;;;;;;;;18.00;17.67;;;;;;;;5059595;28;45269;-75
2023/06/02 01:41:02;;;;;;;;;21.00;20.33;;;;;;;;5058174;28;47301;-76
2023/06/02 01:43:28;;;;;;;;;16.00;16.00;;;;;;;;5057669;28;48506;-76
2023/06/02 01:45:54;;;;;;;;;22.00;19.00;;;;;;;;5058117;28;45344;-76
2023/06/02 01:48:19;;;;;;;;;23.33;20.67;;;;;;;;5059486;28;45430;-76
2023/06/02 01:50:44;;;;;;;;;21.67;19.00;;;;;;;;5059145;28;45478;-76
2023/06/02 01:53:10;;;;;;;;;22.67;19.33;;;;;;;;5059345;28;46653;-76
2023/06/02 01:55:35;;;;;;;;;23.00;19.33;;;;;;;;5059707;28;45219;-76
2023/06/02 01:58:00;;;;;;;;;21.00;18.00;;;;;;;;5059611;28;45306;-76
2023/06/02 02:00:26;;;;;;;;;24.00;22.33;;;;;;;;5058167;28;46282;-76
2023/06/02 02:02:52;;;;;;;;;22.00;19.67;;;;;;;;5057796;28;48045;-77
2023/06/02 02:05:18;;;;;;;;;17.33;16.00;;;;;;;;5059574;28;45358;-76
2023/06/02 02:07:44;;;;;;;;;22.00;21.33;;;;;;;;5057545;28;45354;-76
2023/06/02 02:10:10;;;;;;;;;25.00;23.00;;;;;;;;5057944;28;46009;-77
2023/06/02 02:12:35;;;;;;;;;20.33;20.33;;;;;;;;5058818;28;45327;-76
2023/06/02 02:15:00;;;;;;;;;18.00;18.00;;;;;;;;5058849;28;45378;-75
2023/06/02 02:17:26;;;;;;;;;26.00;24.00;;;;;;;;5058985;28;45361;-76
2023/06/02 02:19:54;;;;;;;;;24.33;23.00;;;;;;;;5061093;28;46152;-75
2023/06/02 02:22:19;;;;;;;;;22.00;20.00;;;;;;;;5062433;28;46510;-76
2023/06/02 02:24:46;;;;;;;;;21.67;20.00;;;;;;;;5061013;28;45303;-77
2023/06/02 02:27:12;;;;;;;;;26.67;23.67;;;;;;;;5062443;28;45417;-76
2023/06/02 02:29:38;;;;;;;;;27.33;23.67;;;;;;;;5061841;28;45291;-75
2023/06/02 02:32:03;;;;;;;;;21.67;19.67;;;;;;;;5060741;28;47849;-75
2023/06/02 02:34:28;;;;;;;;;25.33;22.67;;;;;;;;5062083;28;45327;-76
2023/06/02 02:36:58;;;;;;;;;28.33;25.33;;;;;;;;5061665;28;45323;-77
2023/06/02 02:39:24;;;;;;;;;26.33;25.00;;;;;;;;5062564;28;45480;-76
2023/06/02 02:41:49;;;;;;;;;27.00;26.00;;;;;;;;5062166;28;45284;-76
2023/06/02 02:44:14;;;;;;;;;27.67;25.33;;;;;;;;5062339;28;45322;-76
2023/06/02 02:46:39;;;;;;;;;29.00;22.33;;;;;;;;5062054;28;45259;-77
2023/06/02 02:49:05;;;;;;;;;24.67;22.67;;;;;;;;5062326;28;45212;-76
2023/06/02 02:51:30;;;;;;;;;25.00;23.00;;;;;;;;5061518;28;45806;-75
2023/06/02 02:53:55;;;;;;;;;24.67;24.00;;;;;;;;5062255;28;45225;-76
2023/06/02 02:56:22;;;;;;;;;26.33;24.33;;;;;;;;5062646;28;45352;-75
2023/06/02 02:58:47;;;;;;;;;25.00;24.00;;;;;;;;5061736;28;45164;-75
2023/06/02 03:01:16;;;;;;;;;25.67;24.00;;;;;;;;5060372;28;48323;-76
2023/06/02 03:03:41;;;;;;;;;21.67;20.33;;;;;;;;5060853;28;45374;-77
2023/06/02 03:06:07;;;;;;;;;20.00;20.00;;;;;;;;5062722;28;45238;-76
2023/06/02 03:08:32;;;;;;;;;25.33;23.67;;;;;;;;5062104;28;45281;-75
2023/06/02 03:10:58;;;;;;;;;25.00;23.00;;;;;;;;5061457;28;45372;-78
2023/06/02 03:13:23;;;;;;;;;24.33;22.33;;;;;;;;5060348;28;45349;-75
2023/06/02 03:15:48;;;;;;;;;29.00;26.00;;;;;;;;5062000;28;45268;-75
2023/06/02 03:18:13;;;;;;;;;29.67;26.67;;;;;;;;5061958;28;45533;-75
2023/06/02 03:20:38;;;;;;;;;25.67;24.67;;;;;;;;5059802;28;48006;-77
2023/06/02 03:23:04;;;;;;;;;20.33;20.33;;;;;;;;5061535;28;45228;-75
2023/06/02 03:25:30;;;;;;;;;27.33;26.67;;;;;;;;5061523;28;45382;-75
2023/06/02 03:27:55;;;;;;;;;28.33;26.00;;;;;;;;5061555;28;45539;-75
2023/06/02 03:30:21;;;;;;;;;24.67;24.33;;;;;;;;5060266;28;45440;-75
2023/06/02 03:32:46;;;;;;;;;30.33;29.33;;;;;;;;5061787;28;45323;-75
2023/06/02 03:35:11;;;;;;;;;32.33;27.67;;;;;;;;5061229;28;45243;-75
2023/06/02 03:37:37;;;;;;;;;31.00;28.67;;;;;;;;5060640;28;45432;-75
2023/06/02 03:40:04;;;;;;;;;28.67;25.00;;;;;;;;5060433;28;47334;-75
2023/06/02 03:42:29;;;;;;;;;29.00;28.67;;;;;;;;5061328;28;45411;-77
2023/06/02 03:44:55;;;;;;;;;31.67;30.67;;;;;;;;5059883;28;45283;-75
2023/06/02 03:47:20;;;;;;;;;33.67;29.00;;;;;;;;5059963;28;46150;-76
2023/06/02 03:49:45;;;;;;;;;34.67;28.00;;;;;;;;5060991;28;46251;-75
2023/06/02 03:52:10;;;;;;;;;37.33;31.67;;;;;;;;5061389;28;45468;-76
2023/06/02 03:54:36;;;;;;;;;28.67;27.67;;;;;;;;5059537;28;45287;-75
2023/06/02 03:57:01;;;;;;;;;35.67;30.67;;;;;;;;5060922;28;45418;-75
2023/06/02 03:59:26;;;;;;;;;34.00;31.67;;;;;;;;5060632;28;45474;-75
2023/06/02 04:01:51;;;;;;;;;33.67;30.67;;;;;;;;5061273;28;45264;-76
2023/06/02 04:04:16;;;;;;;;;29.67;28.33;;;;;;;;5061314;28;45489;-76
2023/06/02 04:06:41;;;;;;;;;35.33;32.33;;;;;;;;5060294;28;45414;-76
2023/06/02 04:09:10;;;;;;;;;27.33;25.67;;;;;;;;5060926;28;45380;-75
2023/06/02 04:11:35;;;;;;;;;32.00;29.00;;;;;;;;5060713;28;45271;-76
2023/06/02 04:14:01;;;;;;;;;34.00;29.00;;;;;;;;5060609;28;45343;-76
2023/06/02 04:16:26;;;;;;;;;34.00;30.00;;;;;;;;5059732;28;46235;-76
2023/06/02 04:18:52;;;;;;;;;33.33;30.33;;;;;;;;5060363;28;45477;-75
2023/06/02 04:21:18;;;;;;;;;32.67;27.33;;;;;;;;5060578;28;45347;-76
2023/06/02 04:23:43;;;;;;;;;35.00;29.33;;;;;;;;5059308;28;45378;-76
2023/06/02 04:26:08;;;;;;;;;36.67;32.00;;;;;;;;5060573;28;45236;-75
2023/06/02 04:28:33;;;;;;;;;41.00;35.33;;;;;;;;5060270;28;46439;-76
2023/06/02 04:30:59;;;;;;;;;36.33;31.00;;;;;;;;5059004;28;45484;-75
2023/06/02 04:33:24;;;;;;;;;38.33;33.67;;;;;;;;5059735;28;45284;-75
2023/06/02 04:35:49;;;;;;;;;34.67;30.00;;;;;;;;5058365;28;45174;-75
2023/06/02 04:38:14;;;;;;;;;34.00;31.00;;;;;;;;5058535;28;47943;-76
2023/06/02 04:40:41;;;;;;;;;35.33;29.00;;;;;;;;5059952;28;45312;-75
2023/06/02 04:43:07;;;;;;;;;32.67;29.33;;;;;;;;5058909;28;45413;-76
2023/06/02 04:45:32;;;;;;;;;39.00;34.00;;;;;;;;5060057;28;45452;-76
2023/06/02 04:47:57;;;;;;;;;33.67;31.67;;;;;;;;5059750;28;45487;-76
2023/06/02 04:50:22;;;;;;;;;33.67;30.33;;;;;;;;5059585;28;45320;-75
2023/06/02 04:52:48;;;;;;;;;44.75;38.25;;;;;;;;5060062;28;45678;-75
2023/06/02 04:55:13;;;;;;;;;40.25;34.00;;;;;;;;5059964;28;45349;-76
2023/06/02 04:57:38;;;;;;;;;31.00;29.00;;;;;;;;5059997;28;45409;-77
2023/06/02 05:00:04;;;;;;;;;26.00;25.67;;;;;;;;5059899;28;45356;-76
2023/06/02 05:02:30;;;;;;;;;40.00;34.00;;;;;;;;5060025;28;45145;-75
2023/06/02 05:04:55;;;;;;;;;32.67;30.33;;;;;;;;5059874;28;45249;-76
2023/06/02 05:07:21;;;;;;;;;34.00;31.33;;;;;;;;5057996;28;48268;-75
2023/06/02 05:09:46;;;;;;;;;32.00;28.33;;;;;;;;5059829;28;45384;-76
2023/06/02 05:12:11;;;;;;;;;37.67;31.33;;;;;;;;5060365;28;45261;-75
2023/06/02 05:14:36;;;;;;;;;40.33;33.00;;;;;;;;5063507;28;45247;-76
2023/06/02 05:17:02;;;;;;;;;101.00;87.25;;;;;;;;5060087;28;45218;-75
2023/06/02 05:19:27;;;;;;;;;73.00;56.50;;;;;;;;5059443;28;45201;-75
2023/06/02 05:21:52;;;;;;;;;41.00;34.25;;;;;;;;5058397;28;45373;-75
2023/06/02 05:24:17;;;;;;;;;26.33;26.33;;;;;;;;5060626;28;45480;-77
2023/06/02 05:26:43;;;;;;;;;28.33;24.33;;;;;;;;5059969;28;45905;-75
2023/06/02 05:29:08;;;;;;;;;28.33;25.33;;;;;;;;5057628;28;45189;-75
2023/06/02 05:31:33;;;;;;;;;30.00;28.33;;;;;;;;5049754;28;45418;-76
2023/06/02 05:33:59;;;;;;;;;43.67;35.33;;;;;;;;5041044;28;45501;-74
2023/06/02 05:36:24;;;;;;;;;43.00;34.75;;;;;;;;5054978;28;45344;-73
2023/06/02 05:38:49;;;;;;;;;26.67;25.00;;;;;;;;5058748;28;45331;-75
2023/06/02 05:41:14;;;;;;;;;66.00;49.75;;;;;;;;5062909;28;45308;-74
2023/06/02 05:43:40;;;;;;;;;29.67;29.00;;;;;;;;5060965;28;45938;-75
2023/06/02 05:46:05;;;;;;;;;30.67;26.00;;;;;;;;5059222;28;47139;-77
2023/06/02 05:48:31;;;;;;;;;26.33;25.67;;;;;;;;5059837;28;45394;-74
2023/06/02 05:50:56;;;;;;;;;34.67;29.67;;;;;;;;5055291;28;45275;-74
2023/06/02 05:53:21;;;;;;;;;28.67;26.67;;;;;;;;5048864;28;45311;-74
2023/06/02 05:55:46;;;;;;;;;43.00;36.00;;;;;;;;5050109;28;46160;-75
2023/06/02 05:58:11;;;;;;;;;32.00;29.67;;;;;;;;5044032;28;45307;-75
2023/06/02 06:00:38;;;;;;;;;28.33;27.00;;;;;;;;5058660;28;45634;-76
2023/06/02 06:03:03;;;;;;;;;29.67;28.33;;;;;;;;5059930;28;45548;-77
2023/06/02 06:05:28;;;;;;;;;23.67;21.33;;;;;;;;5058848;28;46259;-74
2023/06/02 06:07:53;;;;;;;;;29.00;26.33;;;;;;;;5057420;28;45539;-76
2023/06/02 06:10:18;;;;;;;;;33.00;28.33;;;;;;;;5051987;28;45453;-75
2023/06/02 06:12:44;;;;;;;;;27.00;27.00;;;;;;;;5056043;28;45406;-77
2023/06/02 06:15:09;;;;;;;;;27.00;27.00;;;;;;;;5059358;28;45416;-76
2023/06/02 06:17:43;;;;;;;;;22.67;22.67;;;;;;;;5059728;28;45375;-75
2023/06/02 06:20:10;;;;;;;;;27.33;24.00;;;;;;;;5059070;28;45400;-75
2023/06/02 06:22:35;;;;;;;;;26.33;24.33;;;;;;;;5055073;28;45905;-76
2023/06/02 06:25:00;;;;;;;;;28.67;26.00;;;;;;;;5055920;28;46038;-75
2023/06/02 06:27:25;;;;;;;;;26.33;23.00;;;;;;;;5058809;28;45450;-75
2023/06/02 06:29:51;;;;;;;;;26.00;24.00;;;;;;;;5055187;28;45779;-75
2023/06/02 06:32:16;;;;;;;;;22.67;20.67;;;;;;;;5052276;28;45330;-75
2023/06/02 06:34:41;;;;;;;;;26.67;24.67;;;;;;;;5053424;28;46275;-76
2023/06/02 06:37:06;;;;;;;;;22.33;22.33;;;;;;;;5054634;28;45668;-75
2023/06/02 06:39:31;;;;;;;;;28.33;25.33;;;;;;;;5056330;28;45507;-76
2023/06/02 06:41:56;;;;;;;;;26.67;24.67;;;;;;;;5057338;28;47355;-77
2023/06/02 06:44:22;;;;;;;;;24.00;21.67;;;;;;;;5060417;28;45458;-78
2023/06/02 06:46:47;;;;;;;;;21.67;20.67;;;;;;;;5058114;28;45348;-77
2023/06/02 06:49:12;;;;;;;;;25.67;24.00;;;;;;;;5057833;28;45421;-76
2023/06/02 06:51:37;;;;;;;;;23.33;22.67;;;;;;;;5058107;28;45552;-77
2023/06/02 06:54:02;;;;;;;;;23.00;19.00;;;;;;;;5056686;28;47893;-75
2023/06/02 06:56:27;;;;;;;;;21.00;21.00;;;;;;;;5058758;28;45476;-76
2023/06/02 06:58:53;;;;;;;;;28.33;25.33;;;;;;;;5059188;28;45560;-77
2023/06/02 07:01:18;;;;;;;;;27.33;27.00;;;;;;;;5059519;28;47037;-78
2023/06/02 07:03:43;;;;;;;;;30.33;27.67;;;;;;;;5059974;28;45433;-76
2023/06/02 07:06:08;;;;;;;;;25.67;23.67;;;;;;;;5059141;28;45378;-78
2023/06/02 07:08:35;;;;;;;;;20.33;20.00;;;;;;;;5061905;28;45564;-79
2023/06/02 07:11:00;;;;;;;;;22.00;21.00;;;;;;;;5063918;28;45650;-80
2023/06/02 07:13:26;;;;;;;;;24.00;21.00;;;;;;;;5062126;28;46359;-80
2023/06/02 07:15:51;;;;;;;;;26.33;24.00;;;;;;;;5064313;28;45466;-79
2023/06/02 07:18:16;;;;;;;;;28.33;27.00;;;;;;;;5063089;28;45366;-81
2023/06/02 07:20:41;;;;;;;;;25.67;23.67;;;;;;;;5065880;28;45539;-76
2023/06/02 07:23:07;;;;;;;;;24.00;22.33;;;;;;;;5061869;28;47188;-78
2023/06/02 07:25:32;;;;;;;;;21.00;20.33;;;;;;;;5059775;28;45489;-80
2023/06/02 07:27:57;;;;;;;;;20.33;18.33;;;;;;;;5058357;28;45740;-78
2023/06/02 07:30:22;;;;;;;;;22.33;20.00;;;;;;;;5060414;28;45607;-78
2023/06/02 07:32:47;;;;;;;;;24.33;23.00;;;;;;;;5063176;28;45471;-78
2023/06/02 07:35:13;;;;;;;;;19.00;19.00;;;;;;;;5060596;28;45411;-78
2023/06/02 07:37:38;;;;;;;;;24.33;20.33;;;;;;;;5062708;28;45351;-78
2023/06/02 07:40:03;;;;;;;;;19.67;17.33;;;;;;;;5062350;28;47075;-78
2023/06/02 07:42:29;;;;;;;;;18.67;17.33;;;;;;;;5059110;28;45434;-80
2023/06/02 07:44:55;;;;;;;;;21.67;20.00;;;;;;;;5058548;28;45378;-78
2023/06/02 07:47:20;;;;;;;;;21.33;18.67;;;;;;;;5060663;28;45500;-78
2023/06/02 07:49:45;;;;;;;;;20.33;18.33;;;;;;;;5062946;28;45590;-76
2023/06/02 07:52:10;;;;;;;;;20.67;19.33;;;;;;;;5060542;28;47426;-77
2023/06/02 07:54:36;;;;;;;;;23.67;21.67;;;;;;;;5061473;28;45323;-78
2023/06/02 07:57:01;;;;;;;;;15.33;15.33;;;;;;;;5064084;28;45312;-77
2023/06/02 07:59:26;;;;;;;;;45.00;35.67;;;;;;;;5069033;28;45450;-78
2023/06/02 08:01:51;;;;;;;;;19.00;16.00;;;;;;;;5063468;28;45271;-76
2023/06/02 08:04:17;;;;;;;;;18.33;17.33;;;;;;;;5057570;28;46777;-77
2023/06/02 08:06:42;;;;;;;;;18.00;17.33;;;;;;;;5060996;28;45283;-78
2023/06/02 08:09:07;;;;;;;;;17.33;17.33;;;;;;;;5066759;28;45669;-78
2023/06/02 08:11:32;;;;;;;;;21.33;20.33;;;;;;;;5060459;28;47790;-78
2023/06/02 08:13:57;;;;;;;;;19.67;17.33;;;;;;;;5063185;28;45343;-79
2023/06/02 08:16:23;;;;;;;;;21.67;20.67;;;;;;;;5063179;28;45332;-79
2023/06/02 08:18:49;;;;;;;;;17.00;16.00;;;;;;;;5061643;28;47257;-80
2023/06/02 08:21:15;;;;;;;;;18.00;17.00;;;;;;;;5062016;28;48560;-80
2023/06/02 08:23:40;;;;;;;;;18.00;17.67;;;;;;;;5059865;28;45513;-80
2023/06/02 08:26:06;;;;;;;;;20.33;20.00;;;;;;;;5056358;28;45416;-81
2023/06/02 08:28:33;;;;;;;;;18.67;17.00;;;;;;;;5059074;28;45758;-79
2023/06/02 08:30:58;;;;;;;;;18.33;18.33;;;;;;;;5056617;28;45840;-77
2023/06/02 08:33:24;;;;;;;;;19.00;18.33;;;;;;;;5058278;28;45333;-77
2023/06/02 08:35:50;;;;;;;;;20.00;19.33;;;;;;;;5062813;28;45908;-78
2023/06/02 08:38:17;;;;;;;;;34.00;31.00;;;;;;;;5057605;28;45228;-76
2023/06/02 08:40:42;;;;;;;;;23.00;22.33;;;;;;;;5056008;28;45412;-76
2023/06/02 08:43:13;;;;;;;;;20.00;20.00;;;;;;;;5052525;28;45433;-76
2023/06/02 08:45:46;;;;;;;;;19.67;18.00;;;;;;;;5051870;28;45462;-77
2023/06/02 08:48:13;;;;;;;;;16.00;16.00;;;;;;;;5054411;28;47270;-76
2023/06/02 08:50:40;;;;;;;;;18.67;17.00;;;;;;;;5053494;28;48254;-76
2023/06/02 08:53:06;;;;;;;;;18.67;18.00;;;;;;;;5055111;28;45503;-76
2023/06/02 08:55:32;;;;;;;;;14.00;14.00;;;;;;;;5056387;28;45456;-76
2023/06/02 08:57:57;;;;;;;;;19.00;17.67;;;;;;;;5055947;28;45476;-76
2023/06/02 09:00:23;;;;;;;;;37.33;32.33;;;;;;;;5053961;28;48568;-77
2023/06/02 09:02:48;;;;;;;;;72.00;64.75;;;;;;;;5056066;28;45344;-75
2023/06/02 09:05:16;;;;;;;;;21.00;20.33;;;;;;;;5054830;28;45215;-74
2023/06/02 09:07:42;;;;;;;;;52.75;41.25;;;;;;;;5057083;28;46062;-74
2023/06/02 09:10:07;;;;;;;;;17.67;16.33;;;;;;;;5055232;28;47363;-74
2023/06/02 09:12:48;;;;;;;;;38.67;32.00;;;;;;;;5057146;28;45524;-75
2023/06/02 09:15:13;;;;;;;;;20.00;18.00;;;;;;;;5056199;28;45401;-74
2023/06/02 09:17:39;;;;;;;;;18.67;18.00;;;;;;;;5053180;28;45355;-74
2023/06/02 09:20:10;;;;;;;;;13.00;13.00;;;;;;;;5055519;28;45707;-74
2023/06/02 09:22:36;;;;;;;;;17.00;15.00;;;;;;;;5055182;28;45533;-74
2023/06/02 09:25:01;;;;;;;;;15.00;15.00;;;;;;;;5056468;28;45322;-74
2023/06/02 09:27:27;;;;;;;;;16.33;15.00;;;;;;;;5055597;28;45359;-75
2023/06/02 09:30:00;;;;;;;;;17.00;15.33;;;;;;;;5058160;28;48455;-73
2023/06/02 09:32:26;;;;;;;;;23.33;22.33;;;;;;;;5058863;28;45465;-74
2023/06/02 09:34:51;;;;;;;;;16.33;15.67;;;;;;;;5058998;28;45470;-74
2023/06/02 09:37:17;;;;;;;;;14.67;14.67;;;;;;;;5058865;28;45707;-75
2023/06/02 09:39:43;;;;;;;;;16.67;16.33;;;;;;;;5059131;28;45502;-73
2023/06/02 09:42:17;;;;;;;;;15.00;12.33;;;;;;;;5059170;28;45525;-74
2023/06/02 09:45:06;;;;;;;;;73.25;64.50;;;;;;;;5058272;28;45354;-74
2023/06/02 09:47:36;;;;;;;;;29.00;25.67;;;;;;;;5057573;28;45453;-76
2023/06/02 09:50:01;;;;;;;;;17.67;17.67;;;;;;;;5056700;28;47040;-76
2023/06/02 09:52:27;;;;;;;;;17.00;16.00;;;;;;;;5058594;28;45333;-76
2023/06/02 09:54:54;;;;;;;;;15.00;15.00;;;;;;;;5059157;28;45360;-76
2023/06/02 09:57:19;;;;;;;;;16.00;15.00;;;;;;;;5059037;28;45692;-77
2023/06/02 09:59:45;;;;;;;;;12.67;12.67;;;;;;;;5059254;28;45306;-78
2023/06/02 10:02:15;;;;;;;;;14.00;14.00;;;;;;;;5058884;28;45398;-77
2023/06/02 10:04:41;;;;;;;;;15.00;13.33;;;;;;;;5062271;28;45350;-78
2023/06/02 10:07:15;;;;;;;;;16.33;16.33;;;;;;;;5062098;28;45335;-76
2023/06/02 10:10:09;;;;;;;;;17.67;16.33;;;;;;;;5051609;28;45343;-77
2023/06/02 10:12:42;;;;;;;;;20.00;19.67;;;;;;;;5060382;28;45314;-76
2023/06/02 10:15:26;;;;;;;;;15.67;14.67;;;;;;;;5061692;28;45369;-78
2023/06/02 10:17:51;;;;;;;;;24.33;24.00;;;;;;;;5061870;28;45636;-78
2023/06/02 10:20:44;;;;;;;;;58.40;45.60;;;;;;;;5057293;28;46043;-78
2023/06/02 10:23:27;;;;;;;;;15.67;15.67;;;;;;;;5041789;28;45386;-76
2023/06/02 10:25:52;;;;;;;;;16.67;15.67;;;;;;;;5042076;28;45323;-79
2023/06/02 10:28:18;;;;;;;;;14.00;13.67;;;;;;;;5040302;28;46487;-78
2023/06/02 10:30:44;;;;;;;;;18.00;17.00;;;;;;;;5061273;28;46331;-75
2023/06/02 10:33:09;;;;;;;;;12.67;12.67;;;;;;;;5061761;28;45329;-80
2023/06/02 10:35:53;;;;;;;;;16.00;14.00;;;;;;;;5060409;28;45400;-78
2023/06/02 10:38:29;;;;;;;;;12.00;9.00;;;;;;;;5062387;28;45425;-77
2023/06/02 10:40:54;;;;;;;;;15.00;15.00;;;;;;;;5061513;28;45272;-79
2023/06/02 10:43:20;;;;;;;;;18.33;14.67;;;;;;;;5062030;28;45359;-77
2023/06/02 10:45:45;;;;;;;;;18.00;17.67;;;;;;;;5062303;28;45425;-79
2023/06/02 10:48:29;;;;;;;;;19.33;18.00;;;;;;;;5060974;28;46262;-77
2023/06/02 10:50:54;;;;;;;;;14.33;14.33;;;;;;;;5054854;28;45493;-76
2023/06/02 10:53:20;;;;;;;;;14.00;11.00;;;;;;;;5041763;28;45613;-79
2023/06/02 10:55:45;;;;;;;;;9.00;9.00;;;;;;;;5040683;28;45529;-76
2023/06/02 10:58:12;;;;;;;;;26.67;24.33;;;;;;;;5052205;28;45547;-75
2023/06/02 11:00:43;;;;;;;;;13.67;12.00;;;;;;;;5049696;28;48240;-76
2023/06/02 11:03:17;;;;;;;;;47.00;37.67;;;;;;;;5051993;28;45276;-77
2023/06/02 11:05:42;;;;;;;;;15.00;14.33;;;;;;;;5050359;28;46584;-76
2023/06/02 11:08:11;;;;;;;;;13.67;13.33;;;;;;;;5060755;28;45285;-78
2023/06/02 11:10:48;;;;;;;;;14.00;13.33;;;;;;;;5048136;28;46056;-78
2023/06/02 11:13:14;;;;;;;;;15.33;14.33;;;;;;;;5051250;28;45358;-79
2023/06/02 11:16:02;;;;;;;;;11.67;11.67;;;;;;;;5058148;28;45442;-79
2023/06/02 11:18:31;;;;;;;;;16.33;14.00;;;;;;;;5056037;28;47003;-78
2023/06/02 11:21:00;;;;;;;;;13.33;13.33;;;;;;;;5055838;28;48141;-77
2023/06/02 11:23:26;;;;;;;;;50.33;39.33;;;;;;;;5056105;28;45378;-77
2023/06/02 11:26:00;;;;;;;;;13.33;13.00;;;;;;;;5051261;28;45507;-76
2023/06/02 11:28:26;;;;;;;;;44.67;36.67;;;;;;;;5054660;28;46436;-78
2023/06/02 11:31:21;;;;;;;;;23.00;22.00;;;;;;;;5050513;28;47088;-75
2023/06/02 11:33:50;;;;;;;;;13.00;12.00;;;;;;;;5050631;28;45997;-75
2023/06/02 11:36:24;;;;;;;;;11.33;11.00;;;;;;;;5054606;28;45307;-78
2023/06/02 11:38:49;;;;;;;;;12.67;12.67;;;;;;;;5057314;28;46394;-77
2023/06/02 11:41:15;;;;;;;;;10.00;10.00;;;;;;;;5052334;28;45416;-75
2023/06/02 11:43:44;;;;;;;;;51.33;42.33;;;;;;;;5055365;28;45610;-77
2023/06/02 11:46:11;;;;;;;;;62.25;51.75;;;;;;;;5057451;28;45819;-78
2023/06/02 11:48:38;;;;;;;;;33.00;29.33;;;;;;;;5058078;28;45741;-78
2023/06/02 11:51:13;;;;;;;;;53.00;41.67;;;;;;;;5055239;28;48040;-77
2023/06/02 11:53:44;;;;;;;;;45.67;38.00;;;;;;;;5055903;28;45284;-78
2023/06/02 11:56:09;;;;;;;;;27.33;26.67;;;;;;;;5055823;28;45650;-76
2023/06/02 11:58:41;;;;;;;;;28.33;26.00;;;;;;;;5057335;28;45890;-77
2023/06/02 12:01:08;;;;;;;;;12.33;11.33;;;;;;;;5057151;28;45395;-78
2023/06/02 12:03:33;;;;;;;;;12.00;12.00;;;;;;;;5055557;28;45226;-77
2023/06/02 12:06:28;;;;;;;;;15.00;14.00;;;;;;;;5054637;28;45132;-78
2023/06/02 12:08:53;;;;;;;;;14.00;12.33;;;;;;;;5057314;28;45580;-78
2023/06/02 12:11:21;;;;;;;;;23.67;23.33;;;;;;;;5055763;28;47026;-76
2023/06/02 12:13:59;;;;;;;;;13.00;12.33;;;;;;;;5057111;28;45430;-75
2023/06/02 12:16:25;;;;;;;;;41.00;33.67;;;;;;;;5055542;28;45703;-77
2023/06/02 12:18:50;;;;;;;;;20.67;19.00;;;;;;;;5055973;28;45966;-77
2023/06/02 12:21:26;;;;;;;;;17.00;16.00;;;;;;;;5054799;28;47256;-78
2023/06/02 12:23:52;;;;;;;;;26.00;24.00;;;;;;;;5056589;28;45546;-77
2023/06/02 12:26:17;;;;;;;;;22.33;22.33;;;;;;;;5056555;28;45314;-78
2023/06/02 12:28:42;;;;;;;;;18.67;16.00;;;;;;;;5057951;28;45447;-78
2023/06/02 12:31:08;;;;;;;;;13.67;12.00;;;;;;;;5057236;28;46926;-78
2023/06/02 12:33:34;;;;;;;;;40.00;34.00;;;;;;;;5058044;28;45517;-77
2023/06/02 12:35:59;;;;;;;;;22.33;22.00;;;;;;;;5056655;28;45339;-76
2023/06/02 12:38:24;;;;;;;;;12.67;12.33;;;;;;;;5055972;28;45387;-75
2023/06/02 12:40:50;;;;;;;;;12.33;12.33;;;;;;;;5055891;28;46563;-79
2023/06/02 12:43:16;;;;;;;;;20.00;19.67;;;;;;;;5056051;28;45407;-76
2023/06/02 12:45:42;;;;;;;;;16.33;15.00;;;;;;;;5055499;28;45334;-77
2023/06/02 12:48:07;;;;;;;;;14.00;13.33;;;;;;;;5056573;28;45301;-77
2023/06/02 12:50:32;;;;;;;;;43.33;35.33;;;;;;;;5056148;28;46098;-78
2023/06/02 12:52:57;;;;;;;;;24.67;23.00;;;;;;;;5057812;28;45229;-78
2023/06/02 12:55:23;;;;;;;;;62.25;50.25;;;;;;;;5053657;28;45508;-80
2023/06/02 12:57:48;;;;;;;;;18.33;15.67;;;;;;;;5054948;28;46483;-78
2023/06/02 13:00:14;;;;;;;;;13.67;13.33;;;;;;;;5056111;28;45939;-79
2023/06/02 13:02:41;;;;;;;;;10.33;7.67;;;;;;;;5055678;28;45286;-78
2023/06/02 13:05:07;;;;;;;;;12.00;10.67;;;;;;;;5056536;28;45525;-78
2023/06/02 13:07:32;;;;;;;;;9.67;9.00;;;;;;;;5056513;28;45391;-76
2023/06/02 13:09:57;;;;;;;;;12.00;10.67;;;;;;;;5056332;28;45292;-77
2023/06/02 13:12:22;;;;;;;;;14.00;14.00;;;;;;;;5055816;28;45507;-77
2023/06/02 13:14:47;;;;;;;;;30.33;28.00;;;;;;;;5054801;28;45412;-76
2023/06/02 13:17:13;;;;;;;;;17.00;13.67;;;;;;;;5055840;28;45323;-76
2023/06/02 13:19:41;;;;;;;;;11.33;10.33;;;;;;;;5055582;28;46312;-79
2023/06/02 13:22:06;;;;;;;;;10.67;10.00;;;;;;;;5055325;28;45452;-78
2023/06/02 13:24:31;;;;;;;;;16.00;12.67;;;;;;;;5052943;28;45587;-76
2023/06/02 13:26:57;;;;;;;;;9.67;9.67;;;;;;;;5049716;28;46163;-79
2023/06/02 13:29:22;;;;;;;;;10.67;9.00;;;;;;;;5051311;28;48385;-79
2023/06/02 13:31:47;;;;;;;;;18.67;17.00;;;;;;;;5055059;28;45718;-76
2023/06/02 13:34:12;;;;;;;;;10.67;9.33;;;;;;;;5055217;28;45545;-77
2023/06/02 13:36:37;;;;;;;;;11.00;11.00;;;;;;;;5054975;28;46438;-77
2023/06/02 13:39:03;;;;;;;;;11.00;11.00;;;;;;;;5055654;28;45317;-78
2023/06/02 13:41:28;;;;;;;;;51.33;41.33;;;;;;;;5054921;28;45310;-76
2023/06/02 13:43:54;;;;;;;;;11.33;10.67;;;;;;;;5055508;28;45468;-76
2023/06/02 13:46:19;;;;;;;;;11.33;11.00;;;;;;;;5055054;28;45540;-77
2023/06/02 13:48:44;;;;;;;;;10.67;9.00;;;;;;;;5051156;28;48300;-79
2023/06/02 13:51:12;;;;;;;;;15.33;14.67;;;;;;;;5056542;28;45264;-78
2023/06/02 13:53:37;;;;;;;;;12.00;10.33;;;;;;;;5056577;28;45444;-77
2023/06/02 13:56:02;;;;;;;;;13.33;12.00;;;;;;;;5056277;28;45393;-79
2023/06/02 13:58:31;;;;;;;;;11.67;11.67;;;;;;;;5055184;28;45439;-77
2023/06/02 14:00:57;;;;;;;;;9.67;9.67;;;;;;;;5052585;28;45228;-76
2023/06/02 14:03:22;;;;;;;;;15.67;15.67;;;;;;;;5055141;28;45535;-77
2023/06/02 14:05:47;;;;;;;;;11.00;9.00;;;;;;;;5054898;28;45448;-76
2023/06/02 14:08:12;;;;;;;;;16.67;16.33;;;;;;;;5055067;28;45587;-75
2023/06/02 14:10:38;;;;;;;;;27.00;21.67;;;;;;;;5054666;28;45493;-79
2023/06/02 14:13:03;;;;;;;;;12.67;12.67;;;;;;;;5056152;28;45775;-76
2023/06/02 14:15:28;;;;;;;;;12.00;11.67;;;;;;;;5057611;28;45501;-78